• Join FlightAware (Why Join?)
  • Login
  • US Flag GB Flag 
09:15 EDT


 

Airport Tracker/Info


-or-


 

Live Flight TrackerFlight Track Log ✈ CTL17 ✈ 02-Jul-2013 ✈ KYIP - KBKL

Flight Track Log - Related Links

Times and Time Zones

All times are in EDT time to prevent confusion due to time zone crossing. See the CTL17 flight status page for this flight to view local times or setup timezone preferences in your user account.

Time Position Orientation Groundspeed Altitude Reporting Facility
EDT Latitude Longitude Course Direction KTS MPH feet Rate Location/Type
17:37 42.2653 -83.5658 299° West 124 143 2,100  Level Cleveland Center
17:38 42.2744 -83.6056 287° West 118 136 3,300 1,080 Climbing Cleveland Center
17:39 42.2956 -83.6039 North 107 123 4,400 780 Climbing Cleveland Center
17:40 42.2756 -83.5719 130° Southeast 133 153 5,000 660 Climbing Cleveland Center
17:41 42.2533 -83.5372 131° Southeast 134 154 5,700 540 Climbing Cleveland Center
17:42 42.2339 -83.4886 118° Southeast 147 169 6,100 120 Climbing Cleveland Center
17:43 42.2081 -83.4286 120° Southeast 167 192 6,000 -60 Descending Cleveland Center
17:44 42.1867 -83.3717 117° Southeast 167 192 6,000  Level Cleveland Center
17:45 42.1650 -83.3172 118° Southeast 170 196 6,000  Level Cleveland Center
17:46 42.1453 -83.2689 119° Southeast 171 197 6,000  Level Cleveland Center
17:47 42.1217 -83.2064 117° Southeast 170 196 6,000  Level Cleveland Center
17:48 42.1042 -83.1553 115° Southeast 171 197 6,000 -240 Level Cleveland Center
17:49 42.0783 -83.0983 121° Southeast 181 208 5,600 -420 Descending Cleveland Center
17:50 42.0567 -83.0386 116° Southeast 182 209 5,200 -300 Descending Cleveland Center
17:51 42.0289 -82.9733 120° Southeast 174 200 5,000 -120 Descending Cleveland Center
17:52 42.0072 -82.9167 117° Southeast 164 189 5,000  Level Cleveland Center
17:54 41.9656 -82.8089 117° Southeast 168 193 5,000  Level Cleveland Center
17:55 41.9375 -82.7408 119° Southeast 170 196 5,000  Level Cleveland Center
17:56 41.9236 -82.7125 123° Southeast 168 193 5,100  Climbing Cleveland Center
17:57 41.9056 -82.6672 118° Southeast 169 194 5,000 -60 Descending Cleveland Center
17:58 41.8814 -82.6136 121° Southeast 169 194 5,000  Level Cleveland Center
17:59 41.8575 -82.5514 117° Southeast 168 193 5,000  Level Cleveland Center
18:00 41.8317 -82.4864 118° Southeast 167 192 5,000  Level Cleveland Center
18:01 41.8114 -82.4386 120° Southeast 167 192 5,000  Level Cleveland Center
18:02 41.7894 -82.3850 119° Southeast 169 194 5,000 -300 Level Cleveland Center
18:03 41.7653 -82.3258 119° Southeast 183 211 4,400 -540 Descending Cleveland Center
18:04 41.7433 -82.2639 115° Southeast 184 212 4,000 -240 Descending Cleveland Center
18:05 41.7192 -82.2078 120° Southeast 165 190 4,000  Level Cleveland Center
18:06 41.7011 -82.1572 116° Southeast 163 188 4,000 -300 Level Cleveland Center
18:07 41.6789 -82.1067 120° Southeast 172 198 3,500 -540 Descending Cleveland Center
18:08 41.6525 -82.0450 120° Southeast 181 208 3,000 -540 Descending Cleveland Center
18:09 41.6283 -81.9861 119° Southeast 175 201 2,400 -660 Descending Cleveland Center
18:10 41.6081 -81.9356 118° Southeast 183 211 1,800 -420 Descending Cleveland Center
18:11 41.5817 -81.8767 121° Southeast 168 193 1,600 -60 Descending Cleveland Center
18:12 41.5531 -81.8233 126° Southeast 152 175 1,700  Climbing Cleveland Center
18:13 41.5325 -81.7814 123° Southeast 153 176 1,700 -120 Level Cleveland Center
18:14 41.5122 -81.7394 123° Southeast 148 170 1,500 -240 Descending Cleveland Center
18:16 41.5175 -81.6833 108° East  Level Estimated
18:23 41.5175 -81.6833 108° East  Level Estimated